createdAt,value
2024-05-09T00:01:54.741Z,14.63
2024-05-09T00:04:24.656Z,14.68
2024-05-09T00:06:57.756Z,14.85
2024-05-09T00:09:27.764Z,13.73
2024-05-09T00:11:57.907Z,12.35
2024-05-09T00:14:29.079Z,14.18
2024-05-09T00:16:59.098Z,12.63
2024-05-09T00:19:29.175Z,13.98
2024-05-09T00:22:01.955Z,12.85
2024-05-09T00:24:32.182Z,14.10
2024-05-09T00:27:02.880Z,12.57
2024-05-09T00:29:33.499Z,18.60
2024-05-09T00:32:03.924Z,13.60
2024-05-09T00:34:34.434Z,11.20
2024-05-09T00:37:07.820Z,12.25
2024-05-09T00:39:37.911Z,15.73
2024-05-09T00:42:08.165Z,13.32
2024-05-09T00:44:38.653Z,11.82
2024-05-09T00:47:09.278Z,14.82
2024-05-09T00:49:39.988Z,12.90
2024-05-09T00:52:14.252Z,18.45
2024-05-09T00:54:44.216Z,13.45
2024-05-09T00:57:14.309Z,12.73
2024-05-09T00:59:44.542Z,13.15
2024-05-09T01:02:15.236Z,12.63
2024-05-09T01:04:45.891Z,14.10
2024-05-09T01:07:19.063Z,15.88
2024-05-09T01:09:49.000Z,11.57
2024-05-09T01:12:19.247Z,14.10
2024-05-09T01:14:49.874Z,14.13
2024-05-09T01:17:20.411Z,11.75
2024-05-09T01:19:50.756Z,12.00
2024-05-09T01:22:24.698Z,12.23
2024-05-09T01:24:57.703Z,14.95
2024-05-09T01:27:27.640Z,14.27
2024-05-09T01:29:58.009Z,11.60
2024-05-09T01:32:28.293Z,15.10
2024-05-09T01:34:58.294Z,13.65
2024-05-09T01:37:28.842Z,11.18
2024-05-09T01:40:01.676Z,11.85
2024-05-09T01:42:31.732Z,14.52
2024-05-09T01:45:01.832Z,15.00
2024-05-09T01:47:32.104Z,14.48
2024-05-09T01:50:02.195Z,10.82
2024-05-09T01:52:34.700Z,15.43
2024-05-09T01:55:07.828Z,13.07
2024-05-09T01:57:37.902Z,12.88
2024-05-09T02:00:10.046Z,12.27
2024-05-09T02:02:40.412Z,12.93
2024-05-09T02:05:10.989Z,13.27
2024-05-09T02:07:41.072Z,14.50
2024-05-09T02:10:16.708Z,11.93
2024-05-09T02:12:53.438Z,13.82
2024-05-09T02:15:23.533Z,15.82
2024-05-09T02:17:53.657Z,12.05
2024-05-09T02:20:30.715Z,14.40
2024-05-09T02:23:07.140Z,13.23
2024-05-09T02:25:41.252Z,14.00
2024-05-09T02:28:11.288Z,12.55
2024-05-09T02:30:42.562Z,15.18
2024-05-09T02:33:14.529Z,11.43
2024-05-09T02:35:45.295Z,12.50
2024-05-09T02:38:13.226Z,13.43
2024-05-09T02:40:46.570Z,18.92
2024-05-09T02:43:13.938Z,11.32
2024-05-09T02:45:44.368Z,11.77
2024-05-09T02:48:13.277Z,13.43
2024-05-09T02:50:46.743Z,12.13
2024-05-09T02:53:16.193Z,12.65
2024-05-09T02:55:49.200Z,13.15
2024-05-09T02:58:16.531Z,13.40
2024-05-09T03:00:46.756Z,15.70
2024-05-09T03:03:15.626Z,14.23
2024-05-09T03:05:46.494Z,15.52
2024-05-09T03:08:14.534Z,14.85
2024-05-09T03:10:45.038Z,13.07
2024-05-09T03:13:16.354Z,18.92
2024-05-09T03:15:46.953Z,15.18
2024-05-09T03:18:18.278Z,13.35
2024-05-09T03:20:45.844Z,14.20
2024-05-09T03:23:20.815Z,14.05
2024-05-09T03:25:48.270Z,14.43
2024-05-09T03:28:21.031Z,12.05
2024-05-09T03:30:48.451Z,13.60
2024-05-09T03:33:20.260Z,16.23
2024-05-09T03:35:48.963Z,13.77
2024-05-09T03:38:19.493Z,12.68
2024-05-09T03:40:50.595Z,21.48
2024-05-09T03:43:23.785Z,13.50
2024-05-09T03:45:53.909Z,16.95
2024-05-09T03:48:21.510Z,20.20
2024-05-09T03:50:52.095Z,13.10
2024-05-09T03:53:19.445Z,18.20
2024-05-09T03:55:49.571Z,13.65
2024-05-09T03:58:16.900Z,13.57
2024-05-09T04:00:49.522Z,17.95
2024-05-09T04:03:17.187Z,14.75
2024-05-09T04:05:47.726Z,17.25
2024-05-09T04:08:15.399Z,17.73
2024-05-09T04:10:46.046Z,15.05
2024-05-09T04:13:13.515Z,18.25
2024-05-09T04:15:44.327Z,20.38
2024-05-09T04:18:14.376Z,17.40
2024-05-09T04:20:44.840Z,16.60
2024-05-09T04:23:13.625Z,17.17
2024-05-09T04:25:46.026Z,15.63
2024-05-09T04:28:14.895Z,21.52
2024-05-09T04:30:45.382Z,19.10
2024-05-09T04:33:20.213Z,18.45
2024-05-09T04:35:49.761Z,16.65
2024-05-09T04:38:19.965Z,17.42
2024-05-09T04:40:47.515Z,16.45
2024-05-09T04:43:19.993Z,18.80
2024-05-09T04:45:47.746Z,18.08
2024-05-09T04:48:20.731Z,17.35
2024-05-09T04:50:48.289Z,18.10
2024-05-09T04:53:19.774Z,17.20
2024-05-09T04:55:47.180Z,20.73
2024-05-09T04:58:17.976Z,21.10
2024-05-09T05:00:45.796Z,19.60
2024-05-09T05:03:16.763Z,20.13
2024-05-09T05:05:47.524Z,17.85
2024-05-09T05:08:18.896Z,18.73
2024-05-09T05:10:47.852Z,16.05
2024-05-09T05:13:21.062Z,18.30
2024-05-09T05:15:49.959Z,20.58
2024-05-09T05:18:20.620Z,18.52
2024-05-09T05:20:51.143Z,19.80
2024-05-09T05:23:22.421Z,18.02
2024-05-09T05:25:50.871Z,17.85
2024-05-09T05:28:22.236Z,21.45
2024-05-09T05:30:50.075Z,20.00
2024-05-09T05:33:23.186Z,19.35
2024-05-09T05:35:53.906Z,18.85
2024-05-09T05:38:27.391Z,21.17
2024-05-09T05:40:56.659Z,16.63
2024-05-09T05:43:26.896Z,18.00
2024-05-09T05:45:54.487Z,18.50
2024-05-09T05:48:24.620Z,19.20
2024-05-09T05:50:54.726Z,19.00
2024-05-09T05:53:24.745Z,18.60
2024-05-09T05:55:52.381Z,18.30
2024-05-09T05:58:22.844Z,19.75
2024-05-09T06:00:53.404Z,18.75
2024-05-09T06:03:23.711Z,19.00
2024-05-09T06:05:51.007Z,19.13
2024-05-09T06:08:26.207Z,20.88
2024-05-09T06:10:55.759Z,17.48
2024-05-09T06:13:25.908Z,21.08
2024-05-09T06:15:53.000Z,19.25
2024-05-09T06:18:23.374Z,20.60
2024-05-09T06:20:51.107Z,18.15
2024-05-09T06:23:23.838Z,24.02
2024-05-09T06:25:51.163Z,17.55
2024-05-09T06:28:21.275Z,22.65
2024-05-09T06:30:48.413Z,18.83
2024-05-09T06:33:18.584Z,20.50
2024-05-09T06:35:46.830Z,19.52
2024-05-09T06:38:16.901Z,21.45
2024-05-09T06:40:47.186Z,18.05
2024-05-09T06:43:19.243Z,16.52
2024-05-09T06:45:48.426Z,19.80
2024-05-09T06:48:20.963Z,21.17
2024-05-09T06:50:49.042Z,17.88
2024-05-09T06:53:20.961Z,19.58
2024-05-09T06:55:50.998Z,16.23
2024-05-09T06:58:21.063Z,18.52
2024-05-09T07:00:48.392Z,16.42
2024-05-09T07:03:19.644Z,19.70
2024-05-09T07:05:48.785Z,15.95
2024-05-09T07:08:19.733Z,16.85
2024-05-09T07:10:48.441Z,16.33
2024-05-09T07:13:25.597Z,14.60
2024-05-09T07:15:58.612Z,10.55
2024-05-09T07:18:29.047Z,14.95
2024-05-09T07:20:56.314Z,9.93
2024-05-09T07:23:26.262Z,15.23
2024-05-09T07:25:53.493Z,10.25
2024-05-09T07:28:26.453Z,9.00
2024-05-09T07:30:53.692Z,10.35
2024-05-09T07:33:24.717Z,9.43
2024-05-09T07:35:52.474Z,12.88
2024-05-09T07:38:22.903Z,11.85
2024-05-09T07:40:50.323Z,8.50
2024-05-09T07:43:20.497Z,12.55
2024-05-09T07:45:54.099Z,11.38
2024-05-09T07:50:00.379Z,10.95
2024-05-09T07:53:51.175Z,11.00
2024-05-09T07:56:24.550Z,13.20
2024-05-09T07:58:54.386Z,12.68
2024-05-09T08:01:27.797Z,14.35
2024-05-09T08:03:55.370Z,14.10
2024-05-09T08:06:26.623Z,15.10
2024-05-09T08:08:54.117Z,16.38
2024-05-09T08:11:24.306Z,15.57
2024-05-09T08:13:51.663Z,14.00
2024-05-09T08:16:27.731Z,20.33
2024-05-09T08:18:55.244Z,23.48
2024-05-09T08:21:25.238Z,24.10
2024-05-09T08:23:53.736Z,25.65
2024-05-09T08:26:23.785Z,24.35
2024-05-09T08:28:51.248Z,21.55
2024-05-09T08:31:21.293Z,20.92
2024-05-09T08:33:52.026Z,21.95
2024-05-09T08:36:22.134Z,19.85
2024-05-09T08:38:49.303Z,16.23
2024-05-09T08:41:19.239Z,18.67
2024-05-09T08:43:46.543Z,18.35
2024-05-09T08:46:19.156Z,20.33
2024-05-09T08:48:48.859Z,16.92
2024-05-09T08:51:21.886Z,17.40
2024-05-09T08:53:49.116Z,18.55
2024-05-09T08:56:19.610Z,21.30
2024-05-09T08:58:47.592Z,18.60
2024-05-09T09:01:17.965Z,20.60
2024-05-09T09:03:45.641Z,16.13
2024-05-09T09:06:18.426Z,14.70
2024-05-09T09:08:49.153Z,16.35
2024-05-09T09:11:19.278Z,17.33
2024-05-09T09:13:46.475Z,18.02
2024-05-09T09:16:17.143Z,18.15
2024-05-09T09:18:45.243Z,15.38
2024-05-09T09:21:15.144Z,16.25
2024-05-09T09:23:42.285Z,18.40
2024-05-09T09:26:18.598Z,16.23
2024-05-09T09:28:45.805Z,15.95
2024-05-09T09:31:15.776Z,18.20
2024-05-09T09:33:43.235Z,14.82
2024-05-09T09:36:14.654Z,15.50
2024-05-09T09:38:42.664Z,17.42
2024-05-09T09:41:16.567Z,23.35
2024-05-09T09:43:44.529Z,15.90
2024-05-09T09:46:15.111Z,16.60
2024-05-09T09:48:43.358Z,23.05
2024-05-09T09:51:13.844Z,15.85
2024-05-09T09:53:43.192Z,18.02
2024-05-09T09:56:17.539Z,16.75
2024-05-09T09:58:46.034Z,21.05
2024-05-09T10:01:15.989Z,16.15
2024-05-09T10:03:45.836Z,17.00
2024-05-09T10:06:16.792Z,22.98
2024-05-09T10:08:45.653Z,16.95
2024-05-09T10:11:22.473Z,14.48
2024-05-09T10:13:51.667Z,21.17
2024-05-09T10:16:24.430Z,18.75
2024-05-09T10:18:52.443Z,18.58
2024-05-09T10:21:22.987Z,17.60
2024-05-09T10:24:00.103Z,19.20
2024-05-09T10:26:35.966Z,18.48
2024-05-09T10:29:11.486Z,16.08
2024-05-09T10:31:42.508Z,18.83
2024-05-09T10:34:17.980Z,16.08
2024-05-09T10:36:48.268Z,17.25
2024-05-09T10:39:16.033Z,17.38
2024-05-09T10:41:48.715Z,20.08
2024-05-09T10:44:16.578Z,18.95
2024-05-09T10:46:47.737Z,16.85
2024-05-09T10:49:15.466Z,19.85
2024-05-09T10:51:48.536Z,18.15
2024-05-09T10:54:16.137Z,13.85
2024-05-09T10:56:48.912Z,16.80
2024-05-09T10:59:16.398Z,17.80
2024-05-09T11:01:46.406Z,18.35
2024-05-09T11:04:14.698Z,17.90
2024-05-09T11:06:45.409Z,16.20
2024-05-09T11:09:13.201Z,16.30
2024-05-09T11:11:43.189Z,14.00
2024-05-09T11:14:16.599Z,15.13
2024-05-09T11:16:46.503Z,18.17
2024-05-09T11:19:14.106Z,14.65
2024-05-09T11:21:46.591Z,11.60
2024-05-09T11:24:13.875Z,11.82
2024-05-09T11:26:43.785Z,15.45
2024-05-09T11:29:11.183Z,11.65
2024-05-09T11:31:50.919Z,16.58
2024-05-09T11:34:18.373Z,13.07
2024-05-09T11:36:48.484Z,11.25
2024-05-09T11:39:16.302Z,13.90
2024-05-09T11:41:46.399Z,12.73
2024-05-09T11:44:13.563Z,12.15
2024-05-09T11:46:47.003Z,15.52
2024-05-09T11:49:17.126Z,15.63
2024-05-09T11:51:47.025Z,15.00
2024-05-09T11:54:15.410Z,14.20
2024-05-09T11:56:45.441Z,13.32
2024-05-09T11:59:12.591Z,13.60
2024-05-09T12:01:42.683Z,10.98
2024-05-09T12:04:10.287Z,13.48
2024-05-09T12:06:43.123Z,12.93
2024-05-09T12:09:10.298Z,14.95
2024-05-09T12:11:40.272Z,13.98
2024-05-09T12:14:08.592Z,12.18
2024-05-09T12:16:38.912Z,13.80
2024-05-09T12:19:06.374Z,14.80
2024-05-09T12:21:36.380Z,16.88
2024-05-09T12:24:06.521Z,13.93
2024-05-09T12:26:36.513Z,15.80
2024-05-09T12:29:03.861Z,16.80
2024-05-09T12:31:33.856Z,16.08
2024-05-09T12:34:01.384Z,19.52
2024-05-09T12:36:31.655Z,17.52
2024-05-09T12:38:59.108Z,18.40
2024-05-09T12:41:31.637Z,21.27
2024-05-09T12:43:58.747Z,20.33
2024-05-09T12:46:29.002Z,22.55
2024-05-09T12:48:56.601Z,20.85
2024-05-09T12:51:26.568Z,23.50
2024-05-09T12:53:53.707Z,25.50
2024-05-09T12:56:23.538Z,20.95
2024-05-09T12:58:53.956Z,21.52
2024-05-09T13:01:24.173Z,25.27
2024-05-09T13:03:51.672Z,20.27
2024-05-09T13:06:21.776Z,19.80
2024-05-09T13:08:48.926Z,19.42
2024-05-09T13:11:19.272Z,22.02
2024-05-09T13:13:46.418Z,17.73
2024-05-09T13:16:19.053Z,15.95
2024-05-09T13:18:46.327Z,18.42
2024-05-09T13:21:16.221Z,16.23
2024-05-09T13:23:43.403Z,16.35
2024-05-09T13:26:13.244Z,19.17
2024-05-09T13:28:40.466Z,21.92
2024-05-09T13:31:10.979Z,16.75
2024-05-09T13:33:41.166Z,17.30
2024-05-09T13:36:11.381Z,18.75
2024-05-09T13:38:38.527Z,17.17
2024-05-09T13:41:08.803Z,17.98
2024-05-09T13:43:36.066Z,17.88
2024-05-09T13:46:06.566Z,16.20
2024-05-09T13:48:34.842Z,20.02
2024-05-09T13:51:08.064Z,17.85
2024-05-09T13:53:35.459Z,18.42
2024-05-09T13:56:05.472Z,15.70
2024-05-09T13:58:33.012Z,17.83
2024-05-09T14:01:03.157Z,15.40
2024-05-09T14:03:30.945Z,22.40
2024-05-09T14:06:01.066Z,15.95
2024-05-09T14:08:30.921Z,21.42
2024-05-09T14:11:00.988Z,15.23
2024-05-09T14:13:28.317Z,23.63
2024-05-09T14:15:58.535Z,14.38
2024-05-09T14:18:25.995Z,17.73
2024-05-09T14:20:56.176Z,17.08
2024-05-09T14:23:23.374Z,13.65
2024-05-09T14:25:56.194Z,15.07
2024-05-09T14:28:24.992Z,13.93
2024-05-09T14:30:56.959Z,13.30
2024-05-09T14:33:27.368Z,14.93
2024-05-09T14:35:57.540Z,11.40
2024-05-09T14:38:25.217Z,14.63
2024-05-09T14:40:58.196Z,11.95
2024-05-09T14:43:25.876Z,16.98
2024-05-09T14:45:56.392Z,12.88
2024-05-09T14:48:23.976Z,10.15
2024-05-09T14:50:54.327Z,15.13
2024-05-09T14:53:23.862Z,11.88
2024-05-09T14:55:53.932Z,13.68
2024-05-09T14:58:24.529Z,11.10
2024-05-09T15:00:54.683Z,10.95
2024-05-09T15:03:22.797Z,14.02
2024-05-09T15:05:53.444Z,10.80
2024-05-09T15:08:20.675Z,14.65
2024-05-09T15:10:51.444Z,11.75
2024-05-09T15:13:19.170Z,11.88
2024-05-09T15:15:52.490Z,13.88
2024-05-09T15:18:19.909Z,14.73
2024-05-09T15:20:50.700Z,8.10
2024-05-09T15:23:18.102Z,10.05
2024-05-09T15:25:48.375Z,11.93
2024-05-09T15:28:16.018Z,11.80
2024-05-09T15:30:46.997Z,14.15
2024-05-09T15:33:17.807Z,12.70
2024-05-09T15:35:48.253Z,17.10
2024-05-09T15:38:16.396Z,16.83
2024-05-09T15:40:47.206Z,14.57
2024-05-09T15:43:14.818Z,12.00
2024-05-09T15:45:45.318Z,13.32
2024-05-09T15:48:12.638Z,17.67
2024-05-09T15:50:45.612Z,12.65
2024-05-09T15:53:13.555Z,15.38
2024-05-09T15:55:43.994Z,18.67
2024-05-09T15:58:11.617Z,16.05
2024-05-09T16:00:43.618Z,16.80
2024-05-09T16:03:13.874Z,18.02
2024-05-09T16:05:48.175Z,17.85
2024-05-09T16:08:16.032Z,15.27
2024-05-09T16:10:47.025Z,15.70
2024-05-09T16:13:15.204Z,13.90
2024-05-09T16:15:46.507Z,13.00
2024-05-09T16:18:13.954Z,11.82
2024-05-09T16:20:49.392Z,17.38
2024-05-09T16:23:17.910Z,18.27
2024-05-09T16:25:48.959Z,13.23
2024-05-09T16:28:16.945Z,14.20
2024-05-09T16:30:47.192Z,15.50
2024-05-09T16:33:14.743Z,15.93
2024-05-09T16:35:47.586Z,14.15
2024-05-09T16:38:15.325Z,14.32
2024-05-09T16:40:45.468Z,13.15
2024-05-09T16:43:13.576Z,15.40
2024-05-09T16:45:45.179Z,14.38
2024-05-09T16:48:13.435Z,15.35
2024-05-09T16:50:43.752Z,13.40
2024-05-09T16:53:14.102Z,14.38
2024-05-09T16:55:44.130Z,14.70
2024-05-09T16:58:12.633Z,15.48
2024-05-09T17:00:44.206Z,10.52
2024-05-09T17:03:14.843Z,14.00
2024-05-09T17:05:47.240Z,13.68
2024-05-09T17:08:28.698Z,14.20
2024-05-09T17:10:56.372Z,13.18
2024-05-09T17:13:26.875Z,13.45
2024-05-09T17:15:58.246Z,16.50
2024-05-09T17:18:28.377Z,17.63
2024-05-09T17:20:55.718Z,16.50
2024-05-09T17:23:29.217Z,14.35
2024-05-09T17:25:56.974Z,14.40
2024-05-09T17:28:28.111Z,15.88
2024-05-09T17:30:55.623Z,14.70
2024-05-09T17:33:25.688Z,13.98
2024-05-09T17:35:53.170Z,10.88
2024-05-09T17:38:24.528Z,13.13
2024-05-09T17:40:55.265Z,14.65
2024-05-09T17:43:25.749Z,15.43
2024-05-09T17:45:53.714Z,14.27
2024-05-09T17:48:24.197Z,11.82
2024-05-09T17:50:54.662Z,13.88
2024-05-09T17:53:22.111Z,11.43
2024-05-09T17:55:54.130Z,14.30
2024-05-09T17:58:24.134Z,19.27
2024-05-09T18:00:54.767Z,12.52
2024-05-09T18:03:23.839Z,14.85
2024-05-09T18:05:54.204Z,15.35
2024-05-09T18:08:21.817Z,15.15
2024-05-09T18:10:54.069Z,18.17
2024-05-09T18:13:26.523Z,13.80
2024-05-09T18:15:56.564Z,16.73
2024-05-09T18:18:23.887Z,12.50
2024-05-09T18:20:54.103Z,14.30
2024-05-09T18:23:22.508Z,14.75
2024-05-09T18:25:55.178Z,16.80
2024-05-09T18:28:25.530Z,15.68
2024-05-09T18:30:55.821Z,14.93
2024-05-09T18:33:25.000Z,13.00
2024-05-09T18:35:55.104Z,16.55
2024-05-09T18:38:27.121Z,14.02
2024-05-09T18:40:57.395Z,17.10
2024-05-09T18:43:34.757Z,13.48
2024-05-09T18:46:08.643Z,14.10
2024-05-09T18:48:36.131Z,12.93
2024-05-09T18:51:06.250Z,14.32
2024-05-09T18:53:33.864Z,15.32
2024-05-09T18:56:05.014Z,15.43
2024-05-09T18:58:36.080Z,13.45
2024-05-09T19:01:07.086Z,14.48
2024-05-09T19:03:35.867Z,14.13
2024-05-09T19:06:06.638Z,14.90
2024-05-09T19:08:34.033Z,14.90
2024-05-09T19:11:03.993Z,18.33
2024-05-09T19:13:31.785Z,12.32
2024-05-09T19:16:04.980Z,15.40
2024-05-09T19:18:32.982Z,15.63
2024-05-09T19:21:03.245Z,19.95
2024-05-09T19:23:35.273Z,13.80
2024-05-09T19:26:08.900Z,16.60
2024-05-09T19:28:36.459Z,11.98
2024-05-09T19:31:09.353Z,13.32
2024-05-09T19:33:38.724Z,16.48
2024-05-09T19:36:10.575Z,17.73
2024-05-09T19:38:38.238Z,14.55
2024-05-09T19:41:08.532Z,14.63
2024-05-09T19:43:36.230Z,16.35
2024-05-09T19:46:09.421Z,14.07
2024-05-09T19:48:39.622Z,13.63
2024-05-09T19:51:07.128Z,18.58
2024-05-09T19:53:36.966Z,18.33
2024-05-09T19:56:04.474Z,17.63
2024-05-09T19:58:35.657Z,18.25
2024-05-09T20:01:06.006Z,15.35
2024-05-09T20:03:37.682Z,20.02
2024-05-09T20:06:05.651Z,18.35
2024-05-09T20:08:36.024Z,20.90
2024-05-09T20:11:03.564Z,18.13
2024-05-09T20:13:34.674Z,15.40
2024-05-09T20:16:02.172Z,26.13
2024-05-09T20:18:36.820Z,18.98
2024-05-09T20:21:04.449Z,18.70
2024-05-09T20:23:35.225Z,14.98
2024-05-09T20:26:02.965Z,16.50
2024-05-09T20:28:33.257Z,18.30
2024-05-09T20:31:00.720Z,18.42
2024-05-09T20:33:31.666Z,16.20
2024-05-09T20:36:02.471Z,17.30
2024-05-09T20:38:32.770Z,17.98
2024-05-09T20:41:00.039Z,22.05
2024-05-09T20:43:29.931Z,17.02
2024-05-09T20:45:57.464Z,19.13
2024-05-09T20:48:29.357Z,22.17
2024-05-09T20:50:56.613Z,21.00
2024-05-09T20:53:30.188Z,22.30
2024-05-09T20:55:57.582Z,19.92
2024-05-09T20:58:27.754Z,22.70
2024-05-09T21:00:55.314Z,22.02
2024-05-09T21:03:25.386Z,16.58
2024-05-09T21:05:52.730Z,17.02
2024-05-09T21:08:23.837Z,17.35
2024-05-09T21:10:54.154Z,19.73
2024-05-09T21:13:24.475Z,18.17
2024-05-09T21:15:52.018Z,17.40
2024-05-09T21:18:22.236Z,20.00
2024-05-09T21:20:49.638Z,19.10
2024-05-09T21:23:19.682Z,15.93
2024-05-09T21:25:49.746Z,22.50
2024-05-09T21:28:19.891Z,22.15
2024-05-09T21:30:49.979Z,19.05
2024-05-09T21:33:17.615Z,19.02
2024-05-09T21:35:47.713Z,24.02
2024-05-09T21:38:15.518Z,19.67
2024-05-09T21:40:45.819Z,19.58
2024-05-09T21:43:13.401Z,18.08
2024-05-09T21:45:46.322Z,19.50
2024-05-09T21:48:13.925Z,21.17
2024-05-09T21:50:44.378Z,19.67
2024-05-09T21:53:12.067Z,24.08
2024-05-09T21:55:42.844Z,24.35
2024-05-09T21:58:10.978Z,23.13
2024-05-09T22:00:43.054Z,18.15
2024-05-09T22:03:13.350Z,18.75
2024-05-09T22:05:45.203Z,19.00
2024-05-09T22:08:12.860Z,19.25
2024-05-09T22:10:43.015Z,19.27
2024-05-09T22:13:10.666Z,18.90
2024-05-09T22:15:41.918Z,20.85
2024-05-09T22:18:10.478Z,23.00
2024-05-09T22:20:46.409Z,20.52
2024-05-09T22:23:14.333Z,17.52
2024-05-09T22:25:44.669Z,21.10
2024-05-09T22:28:13.463Z,19.08
2024-05-09T22:30:46.721Z,19.38
2024-05-09T22:33:15.558Z,18.40
2024-05-09T22:35:48.497Z,16.10
2024-05-09T22:38:15.947Z,18.38
2024-05-09T22:40:49.141Z,20.08
2024-05-09T22:43:18.801Z,20.35
2024-05-09T22:45:50.408Z,17.63
2024-05-09T22:48:18.430Z,22.95
2024-05-09T22:50:51.288Z,25.60
2024-05-09T22:53:18.687Z,20.42
2024-05-09T22:55:48.673Z,23.08
2024-05-09T22:58:16.041Z,22.23
2024-05-09T23:00:46.303Z,22.15
2024-05-09T23:03:16.113Z,20.38
2024-05-09T23:05:46.132Z,20.63
2024-05-09T23:08:16.662Z,24.77
2024-05-09T23:10:46.830Z,19.20
2024-05-09T23:13:14.203Z,18.90
2024-05-09T23:15:44.635Z,22.27
2024-05-09T23:18:12.292Z,21.63
2024-05-09T23:20:42.336Z,21.17
2024-05-09T23:23:11.408Z,20.80
2024-05-09T23:25:44.927Z,19.15
2024-05-09T23:28:12.427Z,19.95
2024-05-09T23:30:42.978Z,21.83
2024-05-09T23:33:11.283Z,23.48
2024-05-09T23:35:41.425Z,22.23
2024-05-09T23:38:08.853Z,22.27
2024-05-09T23:40:40.986Z,22.50
2024-05-09T23:43:12.997Z,21.00
2024-05-09T23:45:44.507Z,18.92
2024-05-09T23:48:12.225Z,23.85
2024-05-09T23:50:42.444Z,20.58
2024-05-09T23:53:10.638Z,23.20
2024-05-09T23:55:41.218Z,19.67
2024-05-09T23:58:08.847Z,27.05
